sensor_id;sensor_type;location;lat;lon;timestamp;P1;durP1;ratioP1;P2;durP2;ratioP2
15451;SDS011;7827;53.594;9.938;2022-10-31T00:01:26;36.30;;;22.85;;
15451;SDS011;7827;53.594;9.938;2022-10-31T00:03:58;29.48;;;22.20;;
15451;SDS011;7827;53.594;9.938;2022-10-31T00:06:27;34.33;;;22.35;;
15451;SDS011;7827;53.594;9.938;2022-10-31T00:08:56;38.13;;;22.95;;
15451;SDS011;7827;53.594;9.938;2022-10-31T00:11:27;34.38;;;22.85;;
15451;SDS011;7827;53.594;9.938;2022-10-31T00:13:56;32.90;;;21.48;;
15451;SDS011;7827;53.594;9.938;2022-10-31T00:16:25;40.75;;;22.80;;
15451;SDS011;7827;53.594;9.938;2022-10-31T00:18:55;35.22;;;23.58;;
15451;SDS011;7827;53.594;9.938;2022-10-31T00:21:27;37.83;;;22.42;;
15451;SDS011;7827;53.594;9.938;2022-10-31T00:23:57;36.53;;;23.27;;
15451;SDS011;7827;53.594;9.938;2022-10-31T00:26:27;34.72;;;22.67;;
15451;SDS011;7827;53.594;9.938;2022-10-31T00:28:57;34.22;;;21.67;;
15451;SDS011;7827;53.594;9.938;2022-10-31T00:31:26;39.50;;;23.17;;
15451;SDS011;7827;53.594;9.938;2022-10-31T00:33:55;32.47;;;21.50;;
15451;SDS011;7827;53.594;9.938;2022-10-31T00:36:27;36.20;;;21.55;;
15451;SDS011;7827;53.594;9.938;2022-10-31T00:38:55;35.83;;;23.67;;
15451;SDS011;7827;53.594;9.938;2022-10-31T00:41:25;37.60;;;24.50;;
15451;SDS011;7827;53.594;9.938;2022-10-31T00:43:53;38.40;;;23.05;;
15451;SDS011;7827;53.594;9.938;2022-10-31T00:46:22;41.03;;;26.20;;
15451;SDS011;7827;53.594;9.938;2022-10-31T00:48:51;47.20;;;25.92;;
15451;SDS011;7827;53.594;9.938;2022-10-31T00:51:19;43.50;;;27.33;;
15451;SDS011;7827;53.594;9.938;2022-10-31T00:53:49;40.70;;;25.02;;
15451;SDS011;7827;53.594;9.938;2022-10-31T00:56:17;44.65;;;25.73;;
15451;SDS011;7827;53.594;9.938;2022-10-31T00:58:45;41.13;;;26.58;;
15451;SDS011;7827;53.594;9.938;2022-10-31T01:01:13;44.42;;;26.27;;
15451;SDS011;7827;53.594;9.938;2022-10-31T01:03:42;46.47;;;27.40;;
15451;SDS011;7827;53.594;9.938;2022-10-31T01:06:12;46.85;;;28.63;;
15451;SDS011;7827;53.594;9.938;2022-10-31T01:08:42;49.97;;;27.20;;
15451;SDS011;7827;53.594;9.938;2022-10-31T01:11:14;43.00;;;28.63;;
15451;SDS011;7827;53.594;9.938;2022-10-31T01:13:44;45.58;;;29.17;;
15451;SDS011;7827;53.594;9.938;2022-10-31T01:16:14;47.38;;;27.85;;
15451;SDS011;7827;53.594;9.938;2022-10-31T01:18:45;45.75;;;27.20;;
15451;SDS011;7827;53.594;9.938;2022-10-31T01:21:15;47.40;;;28.73;;
15451;SDS011;7827;53.594;9.938;2022-10-31T01:23:47;43.63;;;29.50;;
15451;SDS011;7827;53.594;9.938;2022-10-31T01:26:18;45.22;;;28.50;;
15451;SDS011;7827;53.594;9.938;2022-10-31T01:28:49;49.75;;;30.00;;
15451;SDS011;7827;53.594;9.938;2022-10-31T01:31:22;49.60;;;29.80;;
15451;SDS011;7827;53.594;9.938;2022-10-31T01:33:54;53.15;;;30.88;;
15451;SDS011;7827;53.594;9.938;2022-10-31T01:36:23;49.22;;;29.90;;
15451;SDS011;7827;53.594;9.938;2022-10-31T01:38:55;56.20;;;31.40;;
15451;SDS011;7827;53.594;9.938;2022-10-31T01:41:35;48.00;;;30.65;;
15451;SDS011;7827;53.594;9.938;2022-10-31T01:47:17;51.15;;;30.58;;
15451;SDS011;7827;53.594;9.938;2022-10-31T01:49:54;61.33;;;31.83;;
15451;SDS011;7827;53.594;9.938;2022-10-31T01:52:29;54.10;;;31.10;;
15451;SDS011;7827;53.594;9.938;2022-10-31T01:55:05;56.55;;;31.38;;
15451;SDS011;7827;53.594;9.938;2022-10-31T01:57:40;48.85;;;31.52;;
15451;SDS011;7827;53.594;9.938;2022-10-31T02:00:16;51.15;;;31.33;;
15451;SDS011;7827;53.594;9.938;2022-10-31T02:02:47;51.50;;;31.80;;
15451;SDS011;7827;53.594;9.938;2022-10-31T02:05:18;54.78;;;31.63;;
15451;SDS011;7827;53.594;9.938;2022-10-31T02:07:51;54.35;;;32.03;;
15451;SDS011;7827;53.594;9.938;2022-10-31T02:10:29;49.67;;;31.90;;
15451;SDS011;7827;53.594;9.938;2022-10-31T02:13:01;50.40;;;32.00;;
15451;SDS011;7827;53.594;9.938;2022-10-31T02:15:36;56.70;;;32.28;;
15451;SDS011;7827;53.594;9.938;2022-10-31T02:18:06;57.00;;;32.72;;
15451;SDS011;7827;53.594;9.938;2022-10-31T02:20:39;49.38;;;31.17;;
15451;SDS011;7827;53.594;9.938;2022-10-31T02:26:45;48.58;;;30.17;;
15451;SDS011;7827;53.594;9.938;2022-10-31T02:30:06;51.15;;;31.95;;
15451;SDS011;7827;53.594;9.938;2022-10-31T02:32:44;50.80;;;31.88;;
15451;SDS011;7827;53.594;9.938;2022-10-31T02:35:33;57.75;;;32.03;;
15451;SDS011;7827;53.594;9.938;2022-10-31T02:38:26;54.45;;;31.00;;
15451;SDS011;7827;53.594;9.938;2022-10-31T02:41:15;51.20;;;30.67;;
15451;SDS011;7827;53.594;9.938;2022-10-31T02:44:02;53.85;;;32.50;;
15451;SDS011;7827;53.594;9.938;2022-10-31T02:46:38;51.67;;;33.42;;
15451;SDS011;7827;53.594;9.938;2022-10-31T02:49:18;58.08;;;31.80;;
15451;SDS011;7827;53.594;9.938;2022-10-31T02:51:57;55.97;;;33.78;;
15451;SDS011;7827;53.594;9.938;2022-10-31T02:54:26;64.28;;;33.33;;
15451;SDS011;7827;53.594;9.938;2022-10-31T02:56:57;54.08;;;30.63;;
15451;SDS011;7827;53.594;9.938;2022-10-31T02:59:31;58.00;;;33.65;;
15451;SDS011;7827;53.594;9.938;2022-10-31T03:05:28;53.05;;;32.00;;
15451;SDS011;7827;53.594;9.938;2022-10-31T03:08:18;57.17;;;32.78;;
15451;SDS011;7827;53.594;9.938;2022-10-31T03:10:55;56.70;;;33.42;;
15451;SDS011;7827;53.594;9.938;2022-10-31T03:13:31;48.60;;;31.05;;
15451;SDS011;7827;53.594;9.938;2022-10-31T03:16:08;56.33;;;32.70;;
15451;SDS011;7827;53.594;9.938;2022-10-31T03:18:45;61.50;;;31.98;;
15451;SDS011;7827;53.594;9.938;2022-10-31T03:21:21;61.05;;;32.47;;
15451;SDS011;7827;53.594;9.938;2022-10-31T03:23:58;51.00;;;31.63;;
15451;SDS011;7827;53.594;9.938;2022-10-31T03:26:29;58.22;;;34.08;;
15451;SDS011;7827;53.594;9.938;2022-10-31T03:28:59;62.65;;;33.53;;
15451;SDS011;7827;53.594;9.938;2022-10-31T03:31:33;60.88;;;32.05;;
15451;SDS011;7827;53.594;9.938;2022-10-31T03:34:08;59.25;;;33.38;;
15451;SDS011;7827;53.594;9.938;2022-10-31T03:36:41;54.13;;;32.40;;
15451;SDS011;7827;53.594;9.938;2022-10-31T03:39:13;60.58;;;33.30;;
15451;SDS011;7827;53.594;9.938;2022-10-31T03:41:45;51.58;;;32.30;;
15451;SDS011;7827;53.594;9.938;2022-10-31T03:44:20;60.38;;;34.58;;
15451;SDS011;7827;53.594;9.938;2022-10-31T03:46:57;62.45;;;34.95;;
15451;SDS011;7827;53.594;9.938;2022-10-31T03:49:27;63.22;;;34.75;;
15451;SDS011;7827;53.594;9.938;2022-10-31T03:51:59;66.05;;;34.88;;
15451;SDS011;7827;53.594;9.938;2022-10-31T03:54:38;73.93;;;36.28;;
15451;SDS011;7827;53.594;9.938;2022-10-31T03:57:13;62.65;;;36.55;;
15451;SDS011;7827;53.594;9.938;2022-10-31T03:59:47;69.18;;;36.25;;
15451;SDS011;7827;53.594;9.938;2022-10-31T04:02:26;69.65;;;36.78;;
15451;SDS011;7827;53.594;9.938;2022-10-31T04:05:00;68.53;;;36.53;;
15451;SDS011;7827;53.594;9.938;2022-10-31T04:07:32;68.90;;;36.85;;
15451;SDS011;7827;53.594;9.938;2022-10-31T04:10:07;79.18;;;37.53;;
15451;SDS011;7827;53.594;9.938;2022-10-31T04:12:42;73.07;;;36.30;;
15451;SDS011;7827;53.594;9.938;2022-10-31T04:15:26;74.78;;;37.17;;
15451;SDS011;7827;53.594;9.938;2022-10-31T04:17:56;65.80;;;37.13;;
15451;SDS011;7827;53.594;9.938;2022-10-31T04:20:29;67.65;;;35.85;;
15451;SDS011;7827;53.594;9.938;2022-10-31T04:23:00;73.38;;;37.08;;
15451;SDS011;7827;53.594;9.938;2022-10-31T04:25:30;74.18;;;36.63;;
15451;SDS011;7827;53.594;9.938;2022-10-31T04:27:58;69.88;;;38.10;;
15451;SDS011;7827;53.594;9.938;2022-10-31T04:30:27;72.45;;;38.50;;
15451;SDS011;7827;53.594;9.938;2022-10-31T04:32:57;74.60;;;36.88;;
15451;SDS011;7827;53.594;9.938;2022-10-31T04:35:26;71.47;;;36.88;;
15451;SDS011;7827;53.594;9.938;2022-10-31T04:37:54;75.43;;;37.63;;
15451;SDS011;7827;53.594;9.938;2022-10-31T04:40:24;80.97;;;38.53;;
15451;SDS011;7827;53.594;9.938;2022-10-31T04:43:31;78.90;;;38.83;;
15451;SDS011;7827;53.594;9.938;2022-10-31T04:46:00;79.13;;;37.90;;
15451;SDS011;7827;53.594;9.938;2022-10-31T04:48:29;73.18;;;36.42;;
15451;SDS011;7827;53.594;9.938;2022-10-31T04:51:00;67.25;;;35.88;;
15451;SDS011;7827;53.594;9.938;2022-10-31T04:53:31;74.45;;;37.95;;
15451;SDS011;7827;53.594;9.938;2022-10-31T04:56:26;71.95;;;37.25;;
15451;SDS011;7827;53.594;9.938;2022-10-31T04:58:58;65.50;;;35.22;;
15451;SDS011;7827;53.594;9.938;2022-10-31T05:01:30;80.13;;;36.17;;
15451;SDS011;7827;53.594;9.938;2022-10-31T05:03:59;73.35;;;36.45;;
15451;SDS011;7827;53.594;9.938;2022-10-31T05:06:29;73.30;;;35.55;;
15451;SDS011;7827;53.594;9.938;2022-10-31T05:08:58;76.20;;;35.78;;
15451;SDS011;7827;53.594;9.938;2022-10-31T05:11:28;64.60;;;33.83;;
15451;SDS011;7827;53.594;9.938;2022-10-31T05:14:07;67.43;;;34.30;;
15451;SDS011;7827;53.594;9.938;2022-10-31T05:16:58;68.65;;;34.13;;
15451;SDS011;7827;53.594;9.938;2022-10-31T05:19:49;69.45;;;34.92;;
15451;SDS011;7827;53.594;9.938;2022-10-31T05:22:41;74.18;;;34.35;;
15451;SDS011;7827;53.594;9.938;2022-10-31T05:25:11;70.43;;;35.30;;
15451;SDS011;7827;53.594;9.938;2022-10-31T05:27:41;69.55;;;35.20;;
15451;SDS011;7827;53.594;9.938;2022-10-31T05:30:12;71.20;;;33.13;;
15451;SDS011;7827;53.594;9.938;2022-10-31T05:32:44;65.13;;;32.67;;
15451;SDS011;7827;53.594;9.938;2022-10-31T05:35:32;59.83;;;32.63;;
15451;SDS011;7827;53.594;9.938;2022-10-31T05:38:22;68.70;;;32.92;;
15451;SDS011;7827;53.594;9.938;2022-10-31T05:40:53;77.03;;;35.90;;
15451;SDS011;7827;53.594;9.938;2022-10-31T05:43:28;68.03;;;33.25;;
15451;SDS011;7827;53.594;9.938;2022-10-31T05:45:56;71.90;;;33.70;;
15451;SDS011;7827;53.594;9.938;2022-10-31T05:48:43;66.80;;;32.70;;
15451;SDS011;7827;53.594;9.938;2022-10-31T05:51:29;69.88;;;33.70;;
15451;SDS011;7827;53.594;9.938;2022-10-31T05:53:58;78.20;;;34.58;;
15451;SDS011;7827;53.594;9.938;2022-10-31T05:56:26;77.90;;;34.53;;
15451;SDS011;7827;53.594;9.938;2022-10-31T05:58:56;69.43;;;32.67;;
15451;SDS011;7827;53.594;9.938;2022-10-31T06:01:25;71.53;;;32.40;;
15451;SDS011;7827;53.594;9.938;2022-10-31T06:03:56;72.88;;;33.80;;
15451;SDS011;7827;53.594;9.938;2022-10-31T06:06:24;73.72;;;32.70;;
15451;SDS011;7827;53.594;9.938;2022-10-31T06:08:52;69.82;;;32.85;;
15451;SDS011;7827;53.594;9.938;2022-10-31T06:11:21;64.47;;;31.90;;
15451;SDS011;7827;53.594;9.938;2022-10-31T06:14:04;57.72;;;31.23;;
15451;SDS011;7827;53.594;9.938;2022-10-31T06:16:39;66.78;;;32.97;;
15451;SDS011;7827;53.594;9.938;2022-10-31T06:19:31;73.95;;;30.75;;
15451;SDS011;7827;53.594;9.938;2022-10-31T06:21:59;64.80;;;32.22;;
15451;SDS011;7827;53.594;9.938;2022-10-31T06:24:28;68.53;;;32.08;;
15451;SDS011;7827;53.594;9.938;2022-10-31T06:27:16;66.07;;;32.45;;
15451;SDS011;7827;53.594;9.938;2022-10-31T06:29:46;67.88;;;31.83;;
15451;SDS011;7827;53.594;9.938;2022-10-31T06:32:27;65.53;;;31.42;;
15451;SDS011;7827;53.594;9.938;2022-10-31T06:34:55;67.57;;;32.25;;
15451;SDS011;7827;53.594;9.938;2022-10-31T06:37:23;64.97;;;32.20;;
15451;SDS011;7827;53.594;9.938;2022-10-31T06:39:57;65.25;;;32.20;;
15451;SDS011;7827;53.594;9.938;2022-10-31T06:42:25;67.68;;;33.17;;
15451;SDS011;7827;53.594;9.938;2022-10-31T06:44:54;69.07;;;32.85;;
15451;SDS011;7827;53.594;9.938;2022-10-31T06:47:41;68.40;;;32.22;;
15451;SDS011;7827;53.594;9.938;2022-10-31T06:50:34;70.80;;;31.73;;
15451;SDS011;7827;53.594;9.938;2022-10-31T06:53:02;65.18;;;31.98;;
15451;SDS011;7827;53.594;9.938;2022-10-31T06:55:31;64.45;;;31.77;;
15451;SDS011;7827;53.594;9.938;2022-10-31T06:58:00;75.72;;;33.03;;
15451;SDS011;7827;53.594;9.938;2022-10-31T07:00:31;63.65;;;31.08;;
15451;SDS011;7827;53.594;9.938;2022-10-31T07:03:06;62.08;;;33.42;;
15451;SDS011;7827;53.594;9.938;2022-10-31T07:05:38;70.00;;;33.47;;
15451;SDS011;7827;53.594;9.938;2022-10-31T07:08:08;66.65;;;32.30;;
15451;SDS011;7827;53.594;9.938;2022-10-31T07:10:40;66.78;;;32.00;;
15451;SDS011;7827;53.594;9.938;2022-10-31T07:13:10;70.72;;;32.78;;
15451;SDS011;7827;53.594;9.938;2022-10-31T07:15:49;64.20;;;32.35;;
15451;SDS011;7827;53.594;9.938;2022-10-31T07:18:19;64.75;;;33.33;;
15451;SDS011;7827;53.594;9.938;2022-10-31T07:20:48;60.63;;;32.25;;
15451;SDS011;7827;53.594;9.938;2022-10-31T07:23:17;63.13;;;32.60;;
15451;SDS011;7827;53.594;9.938;2022-10-31T07:25:58;58.60;;;30.55;;
15451;SDS011;7827;53.594;9.938;2022-10-31T07:28:37;54.10;;;29.83;;
15451;SDS011;7827;53.594;9.938;2022-10-31T07:31:07;63.90;;;29.02;;
15451;SDS011;7827;53.594;9.938;2022-10-31T07:33:37;50.05;;;26.15;;
15451;SDS011;7827;53.594;9.938;2022-10-31T07:36:23;49.08;;;25.13;;
15451;SDS011;7827;53.594;9.938;2022-10-31T07:38:55;56.58;;;24.48;;
15451;SDS011;7827;53.594;9.938;2022-10-31T07:41:24;52.75;;;25.80;;
15451;SDS011;7827;53.594;9.938;2022-10-31T07:43:53;49.72;;;25.80;;
15451;SDS011;7827;53.594;9.938;2022-10-31T07:46:42;43.28;;;24.40;;
15451;SDS011;7827;53.594;9.938;2022-10-31T07:49:29;50.88;;;24.00;;
15451;SDS011;7827;53.594;9.938;2022-10-31T07:52:17;48.05;;;24.48;;
15451;SDS011;7827;53.594;9.938;2022-10-31T07:55:04;43.40;;;24.13;;
15451;SDS011;7827;53.594;9.938;2022-10-31T07:57:35;42.72;;;24.20;;
15451;SDS011;7827;53.594;9.938;2022-10-31T08:00:05;48.33;;;23.50;;
15451;SDS011;7827;53.594;9.938;2022-10-31T08:02:44;35.70;;;22.50;;
15451;SDS011;7827;53.594;9.938;2022-10-31T08:05:47;40.28;;;22.73;;
15451;SDS011;7827;53.594;9.938;2022-10-31T08:08:35;35.08;;;20.65;;
15451;SDS011;7827;53.594;9.938;2022-10-31T08:11:05;37.92;;;21.10;;
15451;SDS011;7827;53.594;9.938;2022-10-31T08:13:33;34.83;;;21.63;;
15451;SDS011;7827;53.594;9.938;2022-10-31T08:16:02;38.20;;;21.73;;
15451;SDS011;7827;53.594;9.938;2022-10-31T08:18:36;38.50;;;20.70;;
15451;SDS011;7827;53.594;9.938;2022-10-31T08:21:07;35.80;;;20.05;;
15451;SDS011;7827;53.594;9.938;2022-10-31T08:23:36;34.47;;;21.25;;
15451;SDS011;7827;53.594;9.938;2022-10-31T08:26:06;37.60;;;21.42;;
15451;SDS011;7827;53.594;9.938;2022-10-31T08:28:34;38.33;;;21.45;;
15451;SDS011;7827;53.594;9.938;2022-10-31T08:31:03;36.85;;;20.88;;
15451;SDS011;7827;53.594;9.938;2022-10-31T08:33:39;38.78;;;21.98;;
15451;SDS011;7827;53.594;9.938;2022-10-31T08:36:26;34.35;;;21.48;;
15451;SDS011;7827;53.594;9.938;2022-10-31T08:39:01;38.50;;;21.63;;
15451;SDS011;7827;53.594;9.938;2022-10-31T08:41:30;41.08;;;21.35;;
15451;SDS011;7827;53.594;9.938;2022-10-31T08:43:59;35.22;;;20.90;;
15451;SDS011;7827;53.594;9.938;2022-10-31T08:46:27;40.13;;;21.42;;
15451;SDS011;7827;53.594;9.938;2022-10-31T08:48:57;38.80;;;21.98;;
15451;SDS011;7827;53.594;9.938;2022-10-31T08:51:25;37.08;;;21.35;;
15451;SDS011;7827;53.594;9.938;2022-10-31T08:53:54;32.63;;;19.77;;
15451;SDS011;7827;53.594;9.938;2022-10-31T08:56:32;34.53;;;21.50;;
15451;SDS011;7827;53.594;9.938;2022-10-31T08:59:03;33.97;;;20.52;;
15451;SDS011;7827;53.594;9.938;2022-10-31T09:01:54;35.13;;;21.30;;
15451;SDS011;7827;53.594;9.938;2022-10-31T09:04:25;35.05;;;21.10;;
15451;SDS011;7827;53.594;9.938;2022-10-31T09:06:53;33.42;;;20.73;;
15451;SDS011;7827;53.594;9.938;2022-10-31T09:09:41;31.65;;;19.90;;
15451;SDS011;7827;53.594;9.938;2022-10-31T09:12:10;31.55;;;19.38;;
15451;SDS011;7827;53.594;9.938;2022-10-31T09:14:56;31.10;;;19.58;;
15451;SDS011;7827;53.594;9.938;2022-10-31T09:17:48;37.97;;;21.58;;
15451;SDS011;7827;53.594;9.938;2022-10-31T09:20:31;35.38;;;21.33;;
15451;SDS011;7827;53.594;9.938;2022-10-31T09:23:03;34.75;;;20.25;;
15451;SDS011;7827;53.594;9.938;2022-10-31T09:25:36;39.45;;;21.13;;
15451;SDS011;7827;53.594;9.938;2022-10-31T09:28:23;31.13;;;18.65;;
15451;SDS011;7827;53.594;9.938;2022-10-31T09:30:54;35.33;;;22.95;;
15451;SDS011;7827;53.594;9.938;2022-10-31T09:33:43;33.22;;;21.60;;
15451;SDS011;7827;53.594;9.938;2022-10-31T09:36:35;32.20;;;20.48;;
15451;SDS011;7827;53.594;9.938;2022-10-31T09:39:18;33.83;;;21.45;;
15451;SDS011;7827;53.594;9.938;2022-10-31T09:42:00;36.38;;;21.98;;
15451;SDS011;7827;53.594;9.938;2022-10-31T09:44:58;44.33;;;22.45;;
15451;SDS011;7827;53.594;9.938;2022-10-31T09:47:43;38.97;;;22.67;;
15451;SDS011;7827;53.594;9.938;2022-10-31T09:50:33;38.97;;;21.80;;
15451;SDS011;7827;53.594;9.938;2022-10-31T09:53:49;36.15;;;22.55;;
15451;SDS011;7827;53.594;9.938;2022-10-31T09:56:24;38.00;;;23.20;;
15451;SDS011;7827;53.594;9.938;2022-10-31T09:58:58;38.90;;;22.67;;
15451;SDS011;7827;53.594;9.938;2022-10-31T10:01:33;38.95;;;23.15;;
15451;SDS011;7827;53.594;9.938;2022-10-31T10:04:16;43.03;;;23.55;;
15451;SDS011;7827;53.594;9.938;2022-10-31T10:07:14;40.88;;;23.20;;
15451;SDS011;7827;53.594;9.938;2022-10-31T10:10:20;40.08;;;23.15;;
15451;SDS011;7827;53.594;9.938;2022-10-31T10:13:21;43.70;;;25.05;;
15451;SDS011;7827;53.594;9.938;2022-10-31T10:16:20;49.47;;;23.75;;
15451;SDS011;7827;53.594;9.938;2022-10-31T10:19:07;44.45;;;22.65;;
15451;SDS011;7827;53.594;9.938;2022-10-31T10:21:51;42.13;;;20.65;;
15451;SDS011;7827;53.594;9.938;2022-10-31T10:24:32;39.17;;;21.55;;
15451;SDS011;7827;53.594;9.938;2022-10-31T10:27:23;40.38;;;20.55;;
15451;SDS011;7827;53.594;9.938;2022-10-31T10:30:11;36.20;;;21.10;;
15451;SDS011;7827;53.594;9.938;2022-10-31T10:32:44;38.35;;;20.75;;
15451;SDS011;7827;53.594;9.938;2022-10-31T10:35:19;34.78;;;19.52;;
15451;SDS011;7827;53.594;9.938;2022-10-31T10:37:54;32.75;;;20.20;;
15451;SDS011;7827;53.594;9.938;2022-10-31T10:40:28;34.10;;;19.70;;
15451;SDS011;7827;53.594;9.938;2022-10-31T10:43:01;34.35;;;20.13;;
15451;SDS011;7827;53.594;9.938;2022-10-31T10:45:47;31.63;;;20.48;;
15451;SDS011;7827;53.594;9.938;2022-10-31T10:48:43;34.08;;;19.98;;
15451;SDS011;7827;53.594;9.938;2022-10-31T10:51:20;36.55;;;19.92;;
15451;SDS011;7827;53.594;9.938;2022-10-31T10:54:14;27.73;;;17.67;;
15451;SDS011;7827;53.594;9.938;2022-10-31T10:57:04;30.73;;;17.80;;
15451;SDS011;7827;53.594;9.938;2022-10-31T10:59:47;28.35;;;17.55;;
15451;SDS011;7827;53.594;9.938;2022-10-31T11:02:17;28.52;;;17.42;;
15451;SDS011;7827;53.594;9.938;2022-10-31T11:04:51;28.33;;;16.48;;
15451;SDS011;7827;53.594;9.938;2022-10-31T11:07:22;25.63;;;16.45;;
15451;SDS011;7827;53.594;9.938;2022-10-31T11:10:02;25.40;;;15.35;;
15451;SDS011;7827;53.594;9.938;2022-10-31T11:12:39;28.02;;;15.82;;
15451;SDS011;7827;53.594;9.938;2022-10-31T11:15:17;22.83;;;15.73;;
15451;SDS011;7827;53.594;9.938;2022-10-31T11:17:49;23.05;;;15.85;;
15451;SDS011;7827;53.594;9.938;2022-10-31T11:20:25;24.02;;;15.77;;
15451;SDS011;7827;53.594;9.938;2022-10-31T11:23:02;24.77;;;15.40;;
15451;SDS011;7827;53.594;9.938;2022-10-31T11:25:48;27.17;;;17.00;;
15451;SDS011;7827;53.594;9.938;2022-10-31T11:28:19;27.88;;;16.25;;
15451;SDS011;7827;53.594;9.938;2022-10-31T11:30:49;23.08;;;14.10;;
15451;SDS011;7827;53.594;9.938;2022-10-31T11:33:23;26.65;;;15.98;;
15451;SDS011;7827;53.594;9.938;2022-10-31T11:35:58;24.38;;;16.73;;
15451;SDS011;7827;53.594;9.938;2022-10-31T11:38:32;28.83;;;17.17;;
15451;SDS011;7827;53.594;9.938;2022-10-31T11:41:09;28.13;;;16.45;;
15451;SDS011;7827;53.594;9.938;2022-10-31T11:43:45;22.10;;;15.82;;
15451;SDS011;7827;53.594;9.938;2022-10-31T11:46:19;22.25;;;14.65;;
15451;SDS011;7827;53.594;9.938;2022-10-31T11:48:55;23.83;;;15.68;;
15451;SDS011;7827;53.594;9.938;2022-10-31T11:51:25;22.23;;;14.20;;
15451;SDS011;7827;53.594;9.938;2022-10-31T11:53:59;26.63;;;16.95;;
15451;SDS011;7827;53.594;9.938;2022-10-31T11:56:37;28.48;;;18.95;;
15451;SDS011;7827;53.594;9.938;2022-10-31T11:59:15;28.50;;;20.25;;
15451;SDS011;7827;53.594;9.938;2022-10-31T12:01:55;37.92;;;26.13;;
15451;SDS011;7827;53.594;9.938;2022-10-31T12:04:31;43.03;;;29.33;;
15451;SDS011;7827;53.594;9.938;2022-10-31T12:07:07;40.88;;;28.75;;
15451;SDS011;7827;53.594;9.938;2022-10-31T12:09:36;44.45;;;28.20;;
15451;SDS011;7827;53.594;9.938;2022-10-31T12:12:10;45.03;;;32.08;;
15451;SDS011;7827;53.594;9.938;2022-10-31T12:15:07;43.60;;;31.42;;
15451;SDS011;7827;53.594;9.938;2022-10-31T12:21:10;48.42;;;32.22;;
15451;SDS011;7827;53.594;9.938;2022-10-31T12:23:54;43.00;;;29.20;;
15451;SDS011;7827;53.594;9.938;2022-10-31T12:26:38;42.30;;;30.02;;
15451;SDS011;7827;53.594;9.938;2022-10-31T12:29:21;40.65;;;29.35;;
15451;SDS011;7827;53.594;9.938;2022-10-31T12:32:09;42.38;;;29.30;;
15451;SDS011;7827;53.594;9.938;2022-10-31T12:38:01;46.15;;;29.13;;
15451;SDS011;7827;53.594;9.938;2022-10-31T12:41:05;42.22;;;27.92;;
15451;SDS011;7827;53.594;9.938;2022-10-31T12:43:53;39.42;;;27.55;;
15451;SDS011;7827;53.594;9.938;2022-10-31T12:46:37;40.25;;;27.42;;
15451;SDS011;7827;53.594;9.938;2022-10-31T12:49:36;38.25;;;26.48;;
15451;SDS011;7827;53.594;9.938;2022-10-31T12:52:21;38.72;;;26.85;;
15451;SDS011;7827;53.594;9.938;2022-10-31T12:55:08;37.53;;;26.20;;
15451;SDS011;7827;53.594;9.938;2022-10-31T12:57:52;31.90;;;22.98;;
15451;SDS011;7827;53.594;9.938;2022-10-31T13:00:28;38.97;;;25.35;;
15451;SDS011;7827;53.594;9.938;2022-10-31T13:03:04;35.53;;;25.92;;
15451;SDS011;7827;53.594;9.938;2022-10-31T13:05:51;37.35;;;25.10;;
15451;SDS011;7827;53.594;9.938;2022-10-31T13:08:28;36.22;;;24.50;;
15451;SDS011;7827;53.594;9.938;2022-10-31T13:11:05;35.63;;;23.73;;
15451;SDS011;7827;53.594;9.938;2022-10-31T13:13:40;38.60;;;25.77;;
15451;SDS011;7827;53.594;9.938;2022-10-31T13:16:13;36.80;;;24.05;;
15451;SDS011;7827;53.594;9.938;2022-10-31T13:18:50;37.50;;;24.50;;
15451;SDS011;7827;53.594;9.938;2022-10-31T13:21:25;42.67;;;26.70;;
15451;SDS011;7827;53.594;9.938;2022-10-31T13:24:00;41.83;;;25.95;;
15451;SDS011;7827;53.594;9.938;2022-10-31T13:26:36;42.20;;;24.85;;
15451;SDS011;7827;53.594;9.938;2022-10-31T13:29:11;40.95;;;27.85;;
15451;SDS011;7827;53.594;9.938;2022-10-31T13:31:50;36.10;;;25.00;;
15451;SDS011;7827;53.594;9.938;2022-10-31T13:34:20;44.80;;;27.17;;
15451;SDS011;7827;53.594;9.938;2022-10-31T13:36:57;44.30;;;27.50;;
15451;SDS011;7827;53.594;9.938;2022-10-31T13:39:41;46.25;;;28.30;;
15451;SDS011;7827;53.594;9.938;2022-10-31T13:42:23;44.40;;;27.33;;
15451;SDS011;7827;53.594;9.938;2022-10-31T13:45:11;42.95;;;27.27;;
15451;SDS011;7827;53.594;9.938;2022-10-31T13:47:41;42.55;;;26.58;;
15451;SDS011;7827;53.594;9.938;2022-10-31T13:50:20;41.72;;;25.45;;
15451;SDS011;7827;53.594;9.938;2022-10-31T13:52:50;38.15;;;24.58;;
15451;SDS011;7827;53.594;9.938;2022-10-31T13:55:36;41.55;;;25.50;;
15451;SDS011;7827;53.594;9.938;2022-10-31T13:58:21;39.58;;;25.30;;
15451;SDS011;7827;53.594;9.938;2022-10-31T14:01:01;41.03;;;26.08;;
15451;SDS011;7827;53.594;9.938;2022-10-31T14:03:44;36.67;;;24.05;;
15451;SDS011;7827;53.594;9.938;2022-10-31T14:06:40;35.88;;;23.75;;
15451;SDS011;7827;53.594;9.938;2022-10-31T14:09:18;34.00;;;22.88;;
15451;SDS011;7827;53.594;9.938;2022-10-31T14:11:56;32.67;;;22.05;;
15451;SDS011;7827;53.594;9.938;2022-10-31T14:14:32;31.02;;;22.35;;
15451;SDS011;7827;53.594;9.938;2022-10-31T14:17:16;29.25;;;20.38;;
15451;SDS011;7827;53.594;9.938;2022-10-31T14:19:56;31.67;;;21.55;;
15451;SDS011;7827;53.594;9.938;2022-10-31T14:22:29;32.13;;;20.30;;
15451;SDS011;7827;53.594;9.938;2022-10-31T14:27:56;26.95;;;17.92;;
15451;SDS011;7827;53.594;9.938;2022-10-31T14:30:27;25.73;;;18.08;;
15451;SDS011;7827;53.594;9.938;2022-10-31T14:32:57;22.45;;;17.58;;
15451;SDS011;7827;53.594;9.938;2022-10-31T14:35:42;27.70;;;18.25;;
15451;SDS011;7827;53.594;9.938;2022-10-31T14:38:27;26.23;;;17.52;;
15451;SDS011;7827;53.594;9.938;2022-10-31T14:41:22;27.90;;;18.00;;
15451;SDS011;7827;53.594;9.938;2022-10-31T14:44:27;29.02;;;18.65;;
15451;SDS011;7827;53.594;9.938;2022-10-31T14:47:36;25.02;;;17.20;;
15451;SDS011;7827;53.594;9.938;2022-10-31T14:50:20;28.13;;;16.70;;
15451;SDS011;7827;53.594;9.938;2022-10-31T14:53:00;28.25;;;17.20;;
15451;SDS011;7827;53.594;9.938;2022-10-31T14:55:33;28.73;;;16.77;;
15451;SDS011;7827;53.594;9.938;2022-10-31T14:58:07;24.83;;;16.45;;
15451;SDS011;7827;53.594;9.938;2022-10-31T15:00:37;24.95;;;16.42;;
15451;SDS011;7827;53.594;9.938;2022-10-31T15:03:09;23.55;;;16.42;;
15451;SDS011;7827;53.594;9.938;2022-10-31T15:05:45;29.95;;;16.90;;
15451;SDS011;7827;53.594;9.938;2022-10-31T15:08:27;27.73;;;17.25;;
15451;SDS011;7827;53.594;9.938;2022-10-31T15:11:08;24.67;;;16.52;;
15451;SDS011;7827;53.594;9.938;2022-10-31T15:13:42;30.17;;;18.75;;
15451;SDS011;7827;53.594;9.938;2022-10-31T15:16:17;28.17;;;18.67;;
15451;SDS011;7827;53.594;9.938;2022-10-31T15:18:50;29.83;;;18.77;;
15451;SDS011;7827;53.594;9.938;2022-10-31T15:21:22;25.25;;;17.50;;
15451;SDS011;7827;53.594;9.938;2022-10-31T15:23:55;28.65;;;18.63;;
15451;SDS011;7827;53.594;9.938;2022-10-31T15:26:32;28.17;;;18.65;;
15451;SDS011;7827;53.594;9.938;2022-10-31T15:29:11;25.73;;;18.08;;
15451;SDS011;7827;53.594;9.938;2022-10-31T15:31:50;30.52;;;19.83;;
15451;SDS011;7827;53.594;9.938;2022-10-31T15:34:20;29.00;;;19.63;;
15451;SDS011;7827;53.594;9.938;2022-10-31T15:36:55;30.77;;;19.70;;
15451;SDS011;7827;53.594;9.938;2022-10-31T15:39:24;26.08;;;18.83;;
15451;SDS011;7827;53.594;9.938;2022-10-31T15:41:52;25.25;;;18.20;;
15451;SDS011;7827;53.594;9.938;2022-10-31T15:44:24;29.40;;;18.73;;
15451;SDS011;7827;53.594;9.938;2022-10-31T15:46:57;24.77;;;17.95;;
15451;SDS011;7827;53.594;9.938;2022-10-31T15:49:32;30.45;;;18.98;;